createdAt,value
2023-01-17T04:03:02.014Z,64.80
2023-01-17T04:05:29.077Z,58.30
2023-01-17T04:07:55.813Z,61.50
2023-01-17T04:10:22.765Z,69.20
2023-01-17T04:12:49.708Z,53.80
2023-01-17T04:15:16.530Z,56.80
2023-01-17T04:17:43.647Z,43.30
2023-01-17T04:20:16.617Z,46.80
2023-01-17T04:22:43.883Z,36.40
2023-01-17T04:25:10.756Z,50.00
2023-01-17T04:27:37.492Z,35.90
2023-01-17T04:30:04.924Z,27.90
2023-01-17T04:32:31.773Z,32.20
2023-01-17T04:34:58.403Z,27.40
2023-01-17T04:37:25.162Z,25.10
2023-01-17T04:39:51.882Z,28.10
2023-01-17T04:42:18.582Z,33.70
2023-01-17T04:44:45.280Z,28.40
2023-01-17T04:47:12.003Z,32.90
2023-01-17T04:49:44.113Z,33.60
2023-01-17T04:52:11.421Z,28.10
2023-01-17T04:54:38.072Z,30.30
2023-01-17T04:57:07.241Z,26.90
2023-01-17T04:59:35.045Z,25.90
2023-01-17T05:02:02.150Z,30.20
2023-01-17T05:04:30.608Z,31.50
2023-01-17T05:06:57.913Z,28.70
2023-01-17T05:09:24.604Z,30.00
2023-01-17T05:11:51.529Z,32.90
2023-01-17T05:14:18.356Z,28.30
2023-01-17T05:16:45.072Z,33.30
2023-01-17T05:19:11.766Z,27.30
2023-01-17T05:21:38.456Z,29.80
2023-01-17T05:24:05.577Z,35.10
2023-01-17T05:26:34.418Z,33.80
2023-01-17T05:29:01.152Z,36.30
2023-01-17T05:31:28.051Z,29.40
2023-01-17T05:33:54.901Z,34.90
2023-01-17T05:36:21.772Z,32.30
2023-01-17T05:38:48.961Z,40.00
2023-01-17T05:41:15.695Z,43.30
2023-01-17T05:43:42.433Z,33.20
2023-01-17T05:46:09.172Z,40.40
2023-01-17T05:48:35.937Z,39.20
2023-01-17T05:51:02.720Z,34.70
2023-01-17T05:53:29.471Z,40.60
2023-01-17T05:55:56.119Z,34.30
2023-01-17T05:58:25.238Z,35.20
2023-01-17T06:15:07.698Z,31.20
2023-01-17T06:17:50.088Z,32.60
2023-01-17T06:20:19.256Z,33.00
2023-01-17T06:22:51.504Z,34.60
2023-01-17T06:25:20.790Z,37.00
2023-01-17T06:27:47.601Z,37.80
2023-01-17T06:30:14.451Z,40.10
2023-01-17T06:32:41.511Z,35.30
2023-01-17T06:35:08.448Z,33.10
2023-01-17T06:37:35.221Z,35.50
2023-01-17T06:40:01.803Z,39.90
2023-01-17T06:42:30.187Z,34.90
2023-01-17T06:44:56.842Z,38.40
2023-01-17T06:47:23.499Z,40.50
2023-01-17T06:49:50.097Z,42.20
2023-01-17T06:52:16.932Z,40.80
2023-01-17T06:54:43.616Z,39.40
2023-01-17T06:57:10.201Z,39.60
2023-01-17T06:59:37.111Z,40.40
2023-01-17T07:02:04.382Z,37.90
2023-01-17T07:04:31.052Z,40.70
2023-01-17T07:06:57.872Z,41.70
2023-01-17T07:09:24.555Z,41.70
2023-01-17T07:11:52.221Z,37.50
2023-01-17T07:14:19.177Z,44.90
2023-01-17T07:16:48.658Z,45.10
2023-01-17T07:19:15.512Z,33.60
2023-01-17T07:21:42.119Z,37.30
2023-01-17T07:24:08.881Z,48.70
2023-01-17T07:26:37.449Z,41.60
2023-01-17T07:29:11.986Z,42.00
2023-01-17T07:31:39.901Z,40.80
2023-01-17T07:34:06.585Z,42.60
2023-01-17T07:36:35.148Z,39.90
2023-01-17T07:39:01.792Z,43.70
2023-01-17T07:41:30.888Z,41.60
2023-01-17T07:44:02.586Z,44.30
2023-01-17T07:46:29.302Z,43.50
2023-01-17T07:48:55.999Z,41.80
2023-01-17T07:51:22.720Z,45.60
2023-01-17T07:53:49.294Z,40.80
2023-01-17T07:56:15.945Z,36.30
2023-01-17T07:58:42.614Z,42.80
2023-01-17T08:01:10.729Z,43.20
2023-01-17T14:37:22.275Z,58.40
2023-01-17T14:39:50.152Z,69.10
2023-01-17T14:42:19.190Z,61.70
2023-01-17T14:44:49.428Z,70.30
2023-01-17T14:47:16.369Z,61.60
2023-01-17T14:49:43.342Z,58.70
2023-01-17T14:52:14.542Z,58.20
2023-01-17T14:54:49.377Z,54.80
2023-01-17T14:57:29.535Z,58.90
2023-01-17T15:00:18.714Z,53.50
2023-01-17T15:02:46.975Z,50.60
2023-01-17T15:05:19.877Z,55.40
2023-01-17T15:07:53.183Z,53.10
2023-01-17T15:10:31.599Z,57.50
2023-01-17T15:13:05.282Z,59.30
2023-01-17T15:15:38.551Z,60.10
2023-01-17T15:18:14.653Z,63.20
2023-01-17T15:20:43.751Z,52.70
2023-01-17T15:23:14.540Z,58.50
2023-01-17T15:25:41.706Z,50.90
2023-01-17T15:28:11.858Z,53.30
2023-01-17T15:30:39.119Z,47.30
2023-01-17T15:33:06.049Z,58.20
2023-01-17T15:35:33.052Z,62.10
2023-01-17T15:38:01.532Z,57.80
2023-01-17T15:40:31.561Z,59.70
2023-01-17T15:42:59.475Z,50.50
2023-01-17T15:55:48.451Z,62.10
2023-01-17T21:09:20.810Z,111.30
2023-01-17T21:11:47.828Z,102.40
2023-01-17T21:14:14.795Z,96.00
2023-01-17T21:16:41.550Z,95.40
2023-01-17T21:19:11.330Z,98.10
2023-01-17T21:21:38.065Z,92.60
2023-01-17T21:24:05.027Z,107.70
2023-01-17T21:26:32.171Z,77.30
2023-01-17T21:29:03.050Z,77.60
2023-01-17T21:31:33.025Z,67.40
2023-01-17T21:34:02.000Z,75.30
2023-01-17T21:36:32.069Z,56.70
2023-01-17T21:39:03.585Z,50.60
2023-01-17T21:41:33.283Z,53.70
2023-01-17T21:44:05.815Z,50.00
2023-01-17T21:46:38.329Z,57.40
2023-01-17T21:49:05.715Z,56.90
2023-01-17T21:51:52.221Z,50.40
2023-01-17T21:54:43.700Z,42.40
2023-01-17T21:57:30.128Z,53.50
2023-01-17T21:59:57.795Z,46.60
2023-01-17T22:02:24.589Z,44.50
2023-01-17T22:04:53.849Z,47.20
2023-01-17T22:07:20.541Z,47.80
2023-01-17T22:09:47.834Z,47.20
2023-01-17T22:12:14.519Z,50.50
2023-01-17T22:14:41.184Z,47.80
2023-01-17T22:17:08.222Z,43.00
2023-01-17T22:19:35.011Z,41.80
2023-01-17T22:22:01.941Z,36.70
2023-01-17T22:24:28.838Z,37.20
2023-01-17T22:26:55.545Z,41.40
2023-01-17T22:29:25.820Z,42.80
2023-01-17T22:31:52.727Z,41.30
2023-01-17T22:34:19.527Z,46.50
2023-01-17T22:36:46.271Z,46.90
2023-01-17T22:39:13.070Z,45.90
2023-01-17T22:41:39.850Z,42.60
2023-01-17T22:44:07.963Z,46.00
2023-01-17T22:46:39.918Z,42.20
2023-01-17T22:49:07.947Z,41.20
2023-01-17T22:51:36.103Z,44.10
2023-01-17T22:54:03.347Z,40.50
2023-01-17T22:56:31.513Z,38.50
2023-01-17T22:59:00.096Z,33.20
2023-01-17T23:01:29.039Z,39.10
2023-01-17T23:04:00.135Z,44.60
2023-01-17T23:06:29.863Z,45.30
2023-01-17T23:08:58.717Z,42.00
2023-01-17T23:11:52.416Z,44.50
2023-01-17T23:14:23.487Z,42.60
2023-01-17T23:17:12.900Z,38.50
2023-01-17T23:19:42.752Z,34.80
2023-01-17T23:22:20.323Z,37.80
2023-01-17T23:24:52.187Z,40.50
2023-01-17T23:27:43.260Z,42.30
2023-01-17T23:30:14.988Z,50.50
2023-01-17T23:35:15.962Z,46.50
2023-01-17T23:38:01.452Z,46.80
2023-01-17T23:40:30.477Z,44.00
2023-01-17T23:43:15.964Z,41.50
2023-01-17T23:45:42.791Z,40.40
2023-01-17T23:48:10.097Z,47.80
2023-01-17T23:50:37.871Z,48.90
2023-01-17T23:53:07.471Z,52.10
2023-01-17T23:55:35.842Z,47.70
2023-01-17T23:58:03.088Z,50.60
